sensor_id;sensor_type;location;lat;lon;timestamp;P1;durP1;ratioP1;P2;durP2;ratioP2
44116;SDS011;29781;49.480;8.512;2023-07-28T00:01:53;5.30;;;4.47;;
44116;SDS011;29781;49.480;8.512;2023-07-28T00:04:18;4.95;;;4.45;;
44116;SDS011;29781;49.480;8.512;2023-07-28T00:06:44;4.43;;;4.03;;
44116;SDS011;29781;49.480;8.512;2023-07-28T00:09:10;6.53;;;4.55;;
44116;SDS011;29781;49.480;8.512;2023-07-28T00:11:35;6.35;;;4.65;;
44116;SDS011;29781;49.480;8.512;2023-07-28T00:14:01;5.03;;;4.20;;
44116;SDS011;29781;49.480;8.512;2023-07-28T00:16:26;5.45;;;4.30;;
44116;SDS011;29781;49.480;8.512;2023-07-28T00:18:52;4.53;;;4.13;;
44116;SDS011;29781;49.480;8.512;2023-07-28T00:21:17;4.65;;;4.10;;
44116;SDS011;29781;49.480;8.512;2023-07-28T00:23:43;4.10;;;3.70;;
44116;SDS011;29781;49.480;8.512;2023-07-28T00:26:08;4.75;;;3.58;;
44116;SDS011;29781;49.480;8.512;2023-07-28T00:28:34;4.55;;;4.15;;
44116;SDS011;29781;49.480;8.512;2023-07-28T00:30:59;5.13;;;3.92;;
44116;SDS011;29781;49.480;8.512;2023-07-28T00:33:24;5.53;;;3.63;;
44116;SDS011;29781;49.480;8.512;2023-07-28T00:35:50;6.63;;;3.97;;
44116;SDS011;29781;49.480;8.512;2023-07-28T00:38:15;4.70;;;4.20;;
44116;SDS011;29781;49.480;8.512;2023-07-28T00:40:41;6.05;;;5.35;;
44116;SDS011;29781;49.480;8.512;2023-07-28T00:43:06;6.30;;;4.60;;
44116;SDS011;29781;49.480;8.512;2023-07-28T00:45:33;6.18;;;5.35;;
44116;SDS011;29781;49.480;8.512;2023-07-28T00:47:58;8.70;;;5.55;;
44116;SDS011;29781;49.480;8.512;2023-07-28T00:50:25;6.68;;;5.97;;
44116;SDS011;29781;49.480;8.512;2023-07-28T00:52:51;5.95;;;5.40;;
44116;SDS011;29781;49.480;8.512;2023-07-28T00:55:17;9.05;;;6.25;;
44116;SDS011;29781;49.480;8.512;2023-07-28T00:57:43;6.40;;;5.80;;
44116;SDS011;29781;49.480;8.512;2023-07-28T01:00:09;9.40;;;7.03;;
44116;SDS011;29781;49.480;8.512;2023-07-28T01:02:35;8.13;;;5.80;;
44116;SDS011;29781;49.480;8.512;2023-07-28T01:05:02;6.57;;;5.90;;
44116;SDS011;29781;49.480;8.512;2023-07-28T01:10:07;7.30;;;6.60;;
44116;SDS011;29781;49.480;8.512;2023-07-28T01:12:36;7.17;;;6.47;;
44116;SDS011;29781;49.480;8.512;2023-07-28T01:15:01;6.20;;;5.43;;
44116;SDS011;29781;49.480;8.512;2023-07-28T01:17:27;9.48;;;6.18;;
44116;SDS011;29781;49.480;8.512;2023-07-28T01:19:52;6.97;;;6.28;;
44116;SDS011;29781;49.480;8.512;2023-07-28T01:28:18;8.25;;;6.50;;
44116;SDS011;29781;49.480;8.512;2023-07-28T01:30:45;6.15;;;5.47;;
44116;SDS011;29781;49.480;8.512;2023-07-28T01:33:10;6.10;;;5.57;;
44116;SDS011;29781;49.480;8.512;2023-07-28T01:35:36;8.07;;;6.40;;
44116;SDS011;29781;49.480;8.512;2023-07-28T01:38:05;6.50;;;5.68;;
44116;SDS011;29781;49.480;8.512;2023-07-28T01:40:31;6.55;;;5.85;;
44116;SDS011;29781;49.480;8.512;2023-07-28T01:42:56;6.28;;;5.63;;
44116;SDS011;29781;49.480;8.512;2023-07-28T01:45:22;8.68;;;5.40;;
44116;SDS011;29781;49.480;8.512;2023-07-28T01:47:47;5.07;;;4.60;;
44116;SDS011;29781;49.480;8.512;2023-07-28T01:50:13;5.80;;;4.90;;
44116;SDS011;29781;49.480;8.512;2023-07-28T01:52:38;4.82;;;4.40;;
44116;SDS011;29781;49.480;8.512;2023-07-28T01:55:04;4.30;;;3.90;;
44116;SDS011;29781;49.480;8.512;2023-07-28T01:57:32;6.20;;;3.70;;
44116;SDS011;29781;49.480;8.512;2023-07-28T01:59:58;6.03;;;3.85;;
44116;SDS011;29781;49.480;8.512;2023-07-28T02:02:24;4.15;;;3.67;;
44116;SDS011;29781;49.480;8.512;2023-07-28T02:04:50;3.90;;;3.60;;
44116;SDS011;29781;49.480;8.512;2023-07-28T02:07:15;3.88;;;3.50;;
44116;SDS011;29781;49.480;8.512;2023-07-28T02:09:41;6.45;;;4.95;;
44116;SDS011;29781;49.480;8.512;2023-07-28T02:12:07;4.43;;;4.05;;
44116;SDS011;29781;49.480;8.512;2023-07-28T02:14:32;5.43;;;4.93;;
44116;SDS011;29781;49.480;8.512;2023-07-28T02:16:58;6.10;;;5.40;;
44116;SDS011;29781;49.480;8.512;2023-07-28T02:19:24;5.85;;;4.88;;
44116;SDS011;29781;49.480;8.512;2023-07-28T02:21:50;5.03;;;4.53;;
44116;SDS011;29781;49.480;8.512;2023-07-28T02:24:15;9.05;;;4.35;;
44116;SDS011;29781;49.480;8.512;2023-07-28T02:26:41;6.93;;;3.83;;
44116;SDS011;29781;49.480;8.512;2023-07-28T02:29:06;5.40;;;2.90;;
44116;SDS011;29781;49.480;8.512;2023-07-28T02:31:32;8.18;;;3.80;;
44116;SDS011;29781;49.480;8.512;2023-07-28T02:33:57;4.28;;;2.85;;
44116;SDS011;29781;49.480;8.512;2023-07-28T02:36:23;4.00;;;2.72;;
44116;SDS011;29781;49.480;8.512;2023-07-28T02:38:48;7.20;;;3.50;;
44116;SDS011;29781;49.480;8.512;2023-07-28T02:41:14;6.00;;;3.00;;
44116;SDS011;29781;49.480;8.512;2023-07-28T02:43:39;4.20;;;2.83;;
44116;SDS011;29781;49.480;8.512;2023-07-28T02:46:05;5.95;;;3.80;;
44116;SDS011;29781;49.480;8.512;2023-07-28T02:48:30;4.05;;;3.20;;
44116;SDS011;29781;49.480;8.512;2023-07-28T02:50:56;3.65;;;2.63;;
44116;SDS011;29781;49.480;8.512;2023-07-28T02:53:21;3.92;;;3.00;;
44116;SDS011;29781;49.480;8.512;2023-07-28T02:55:47;4.97;;;3.22;;
44116;SDS011;29781;49.480;8.512;2023-07-28T02:58:13;5.13;;;3.80;;
44116;SDS011;29781;49.480;8.512;2023-07-28T03:00:39;3.47;;;2.85;;
44116;SDS011;29781;49.480;8.512;2023-07-28T03:03:06;3.40;;;3.10;;
44116;SDS011;29781;49.480;8.512;2023-07-28T03:05:35;3.58;;;3.00;;
44116;SDS011;29781;49.480;8.512;2023-07-28T03:08:01;5.35;;;3.53;;
44116;SDS011;29781;49.480;8.512;2023-07-28T03:10:27;4.18;;;3.65;;
44116;SDS011;29781;49.480;8.512;2023-07-28T03:12:53;6.15;;;3.85;;
44116;SDS011;29781;49.480;8.512;2023-07-28T03:15:18;7.40;;;4.10;;
44116;SDS011;29781;49.480;8.512;2023-07-28T03:17:46;4.50;;;3.42;;
44116;SDS011;29781;49.480;8.512;2023-07-28T03:20:12;6.22;;;4.13;;
44116;SDS011;29781;49.480;8.512;2023-07-28T03:22:38;4.20;;;3.65;;
44116;SDS011;29781;49.480;8.512;2023-07-28T03:25:04;5.15;;;4.28;;
44116;SDS011;29781;49.480;8.512;2023-07-28T03:27:29;6.57;;;4.25;;
44116;SDS011;29781;49.480;8.512;2023-07-28T03:29:55;7.32;;;4.63;;
44116;SDS011;29781;49.480;8.512;2023-07-28T03:32:20;11.80;;;6.05;;
44116;SDS011;29781;49.480;8.512;2023-07-28T03:34:46;12.18;;;5.53;;
44116;SDS011;29781;49.480;8.512;2023-07-28T03:37:11;6.63;;;4.57;;
44116;SDS011;29781;49.480;8.512;2023-07-28T03:39:37;8.90;;;4.20;;
44116;SDS011;29781;49.480;8.512;2023-07-28T03:42:02;4.18;;;3.50;;
44116;SDS011;29781;49.480;8.512;2023-07-28T03:44:28;5.70;;;3.15;;
44116;SDS011;29781;49.480;8.512;2023-07-28T03:46:54;3.38;;;3.08;;
44116;SDS011;29781;49.480;8.512;2023-07-28T03:49:19;3.92;;;3.17;;
44116;SDS011;29781;49.480;8.512;2023-07-28T03:51:48;3.58;;;2.97;;
44116;SDS011;29781;49.480;8.512;2023-07-28T03:54:13;3.28;;;2.97;;
44116;SDS011;29781;49.480;8.512;2023-07-28T03:56:39;3.65;;;3.17;;
44116;SDS011;29781;49.480;8.512;2023-07-28T03:59:04;3.65;;;3.35;;
44116;SDS011;29781;49.480;8.512;2023-07-28T04:01:30;3.03;;;2.80;;
44116;SDS011;29781;49.480;8.512;2023-07-28T04:03:56;3.42;;;2.70;;
44116;SDS011;29781;49.480;8.512;2023-07-28T04:06:38;2.80;;;2.60;;
44116;SDS011;29781;49.480;8.512;2023-07-28T04:09:05;4.38;;;3.17;;
44116;SDS011;29781;49.480;8.512;2023-07-28T04:11:31;3.67;;;3.13;;
44116;SDS011;29781;49.480;8.512;2023-07-28T04:13:57;8.35;;;3.35;;
44116;SDS011;29781;49.480;8.512;2023-07-28T04:16:22;4.38;;;3.30;;
44116;SDS011;29781;49.480;8.512;2023-07-28T04:18:48;3.47;;;3.17;;
44116;SDS011;29781;49.480;8.512;2023-07-28T04:21:13;6.10;;;3.22;;
44116;SDS011;29781;49.480;8.512;2023-07-28T04:23:39;3.38;;;3.08;;
44116;SDS011;29781;49.480;8.512;2023-07-28T04:26:05;5.43;;;3.97;;
44116;SDS011;29781;49.480;8.512;2023-07-28T04:28:31;7.93;;;5.70;;
44116;SDS011;29781;49.480;8.512;2023-07-28T04:30:57;7.38;;;5.40;;
44116;SDS011;29781;49.480;8.512;2023-07-28T04:33:22;7.03;;;5.82;;
44116;SDS011;29781;49.480;8.512;2023-07-28T04:35:48;7.50;;;5.35;;
44116;SDS011;29781;49.480;8.512;2023-07-28T04:38:13;6.78;;;6.00;;
44116;SDS011;29781;49.480;8.512;2023-07-28T04:40:39;5.68;;;5.07;;
44116;SDS011;29781;49.480;8.512;2023-07-28T04:43:04;4.90;;;4.50;;
44116;SDS011;29781;49.480;8.512;2023-07-28T04:45:30;4.93;;;3.50;;
44116;SDS011;29781;49.480;8.512;2023-07-28T04:47:55;3.08;;;2.80;;
44116;SDS011;29781;49.480;8.512;2023-07-28T04:50:21;3.95;;;2.90;;
44116;SDS011;29781;49.480;8.512;2023-07-28T04:52:46;3.33;;;2.45;;
44116;SDS011;29781;49.480;8.512;2023-07-28T04:55:12;4.45;;;2.95;;
44116;SDS011;29781;49.480;8.512;2023-07-28T04:57:37;2.60;;;2.40;;
44116;SDS011;29781;49.480;8.512;2023-07-28T05:00:03;3.78;;;2.67;;
44116;SDS011;29781;49.480;8.512;2023-07-28T05:02:30;3.85;;;2.65;;
44116;SDS011;29781;49.480;8.512;2023-07-28T05:04:55;3.33;;;2.60;;
44116;SDS011;29781;49.480;8.512;2023-07-28T05:07:21;3.83;;;2.25;;
44116;SDS011;29781;49.480;8.512;2023-07-28T05:09:46;4.57;;;2.60;;
44116;SDS011;29781;49.480;8.512;2023-07-28T05:12:12;4.38;;;2.65;;
44116;SDS011;29781;49.480;8.512;2023-07-28T05:14:37;4.43;;;2.58;;
44116;SDS011;29781;49.480;8.512;2023-07-28T05:17:03;2.80;;;2.53;;
44116;SDS011;29781;49.480;8.512;2023-07-28T05:19:28;3.42;;;2.60;;
44116;SDS011;29781;49.480;8.512;2023-07-28T05:21:54;4.63;;;2.80;;
44116;SDS011;29781;49.480;8.512;2023-07-28T05:24:19;2.65;;;2.45;;
44116;SDS011;29781;49.480;8.512;2023-07-28T05:26:45;2.67;;;2.38;;
44116;SDS011;29781;49.480;8.512;2023-07-28T05:29:10;8.63;;;2.45;;
44116;SDS011;29781;49.480;8.512;2023-07-28T05:31:36;3.10;;;2.78;;
44116;SDS011;29781;49.480;8.512;2023-07-28T05:34:01;2.83;;;2.55;;
44116;SDS011;29781;49.480;8.512;2023-07-28T05:36:27;2.97;;;2.53;;
44116;SDS011;29781;49.480;8.512;2023-07-28T05:38:53;2.75;;;2.47;;
44116;SDS011;29781;49.480;8.512;2023-07-28T05:41:21;4.45;;;2.47;;
44116;SDS011;29781;49.480;8.512;2023-07-28T05:43:47;3.80;;;2.65;;
44116;SDS011;29781;49.480;8.512;2023-07-28T05:46:13;3.75;;;2.30;;
44116;SDS011;29781;49.480;8.512;2023-07-28T05:48:38;2.92;;;2.58;;
44116;SDS011;29781;49.480;8.512;2023-07-28T05:51:04;2.50;;;2.25;;
44116;SDS011;29781;49.480;8.512;2023-07-28T05:53:30;4.05;;;2.30;;
44116;SDS011;29781;49.480;8.512;2023-07-28T05:55:55;2.97;;;2.63;;
44116;SDS011;29781;49.480;8.512;2023-07-28T05:58:21;2.53;;;2.00;;
44116;SDS011;29781;49.480;8.512;2023-07-28T06:00:47;1.95;;;1.85;;
44116;SDS011;29781;49.480;8.512;2023-07-28T06:03:13;2.67;;;2.35;;
44116;SDS011;29781;49.480;8.512;2023-07-28T06:05:39;4.15;;;2.25;;
44116;SDS011;29781;49.480;8.512;2023-07-28T06:08:08;4.13;;;2.22;;
44116;SDS011;29781;49.480;8.512;2023-07-28T06:10:33;2.30;;;2.10;;
44116;SDS011;29781;49.480;8.512;2023-07-28T06:12:59;2.65;;;1.90;;
44116;SDS011;29781;49.480;8.512;2023-07-28T06:15:25;3.10;;;2.00;;
44116;SDS011;29781;49.480;8.512;2023-07-28T06:17:51;2.15;;;1.98;;
44116;SDS011;29781;49.480;8.512;2023-07-28T06:20:17;2.55;;;2.35;;
44116;SDS011;29781;49.480;8.512;2023-07-28T06:22:43;2.33;;;2.13;;
44116;SDS011;29781;49.480;8.512;2023-07-28T06:25:09;4.25;;;2.08;;
44116;SDS011;29781;49.480;8.512;2023-07-28T06:27:35;2.10;;;1.90;;
44116;SDS011;29781;49.480;8.512;2023-07-28T06:30:01;3.03;;;2.47;;
44116;SDS011;29781;49.480;8.512;2023-07-28T06:32:27;4.28;;;1.90;;
44116;SDS011;29781;49.480;8.512;2023-07-28T06:34:53;3.85;;;2.00;;
44116;SDS011;29781;49.480;8.512;2023-07-28T06:37:19;3.83;;;1.80;;
44116;SDS011;29781;49.480;8.512;2023-07-28T06:39:45;3.25;;;2.08;;
44116;SDS011;29781;49.480;8.512;2023-07-28T06:42:11;3.53;;;2.00;;
44116;SDS011;29781;49.480;8.512;2023-07-28T06:44:37;1.80;;;1.70;;
44116;SDS011;29781;49.480;8.512;2023-07-28T06:47:02;2.15;;;2.03;;
44116;SDS011;29781;49.480;8.512;2023-07-28T06:49:28;4.53;;;1.95;;
44116;SDS011;29781;49.480;8.512;2023-07-28T06:51:54;1.85;;;1.52;;
44116;SDS011;29781;49.480;8.512;2023-07-28T06:54:19;3.13;;;1.70;;
44116;SDS011;29781;49.480;8.512;2023-07-28T06:56:45;3.03;;;1.88;;
44116;SDS011;29781;49.480;8.512;2023-07-28T06:59:10;1.80;;;1.70;;
44116;SDS011;29781;49.480;8.512;2023-07-28T07:01:36;2.17;;;1.90;;
44116;SDS011;29781;49.480;8.512;2023-07-28T07:04:02;3.10;;;1.98;;
44116;SDS011;29781;49.480;8.512;2023-07-28T07:06:29;2.28;;;1.90;;
44116;SDS011;29781;49.480;8.512;2023-07-28T07:08:55;4.00;;;2.08;;
44116;SDS011;29781;49.480;8.512;2023-07-28T07:11:20;2.45;;;2.20;;
44116;SDS011;29781;49.480;8.512;2023-07-28T07:13:46;3.10;;;2.30;;
44116;SDS011;29781;49.480;8.512;2023-07-28T07:16:14;2.75;;;2.17;;
44116;SDS011;29781;49.480;8.512;2023-07-28T07:18:41;2.65;;;2.08;;
44116;SDS011;29781;49.480;8.512;2023-07-28T07:21:10;2.45;;;2.17;;
44116;SDS011;29781;49.480;8.512;2023-07-28T07:23:36;1.92;;;1.83;;
44116;SDS011;29781;49.480;8.512;2023-07-28T07:26:02;2.30;;;1.88;;
44116;SDS011;29781;49.480;8.512;2023-07-28T07:28:28;7.20;;;2.58;;
44116;SDS011;29781;49.480;8.512;2023-07-28T07:30:54;2.50;;;2.30;;
44116;SDS011;29781;49.480;8.512;2023-07-28T07:33:20;2.55;;;2.35;;
44116;SDS011;29781;49.480;8.512;2023-07-28T07:35:46;2.75;;;2.30;;
44116;SDS011;29781;49.480;8.512;2023-07-28T07:38:11;2.67;;;2.47;;
44116;SDS011;29781;49.480;8.512;2023-07-28T07:40:37;3.20;;;2.40;;
44116;SDS011;29781;49.480;8.512;2023-07-28T07:43:04;2.50;;;2.30;;
44116;SDS011;29781;49.480;8.512;2023-07-28T07:45:30;3.33;;;2.65;;
44116;SDS011;29781;49.480;8.512;2023-07-28T07:47:55;3.22;;;2.40;;
44116;SDS011;29781;49.480;8.512;2023-07-28T07:50:21;2.42;;;2.22;;
44116;SDS011;29781;49.480;8.512;2023-07-28T07:52:47;2.30;;;2.08;;
44116;SDS011;29781;49.480;8.512;2023-07-28T07:55:12;3.05;;;2.17;;
44116;SDS011;29781;49.480;8.512;2023-07-28T07:57:39;3.95;;;2.20;;
44116;SDS011;29781;49.480;8.512;2023-07-28T08:00:05;2.10;;;2.00;;
44116;SDS011;29781;49.480;8.512;2023-07-28T08:02:31;2.30;;;2.00;;
44116;SDS011;29781;49.480;8.512;2023-07-28T08:04:56;1.92;;;1.75;;
44116;SDS011;29781;49.480;8.512;2023-07-28T08:07:22;1.83;;;1.73;;
44116;SDS011;29781;49.480;8.512;2023-07-28T08:09:48;3.25;;;1.83;;
44116;SDS011;29781;49.480;8.512;2023-07-28T08:12:14;1.88;;;1.55;;
44116;SDS011;29781;49.480;8.512;2023-07-28T08:14:40;1.65;;;1.55;;
44116;SDS011;29781;49.480;8.512;2023-07-28T08:17:06;2.05;;;1.77;;
44116;SDS011;29781;49.480;8.512;2023-07-28T08:19:32;2.40;;;2.03;;
44116;SDS011;29781;49.480;8.512;2023-07-28T08:21:57;5.75;;;2.00;;
44116;SDS011;29781;49.480;8.512;2023-07-28T08:24:23;1.58;;;1.48;;
44116;SDS011;29781;49.480;8.512;2023-07-28T08:26:48;1.70;;;1.60;;
44116;SDS011;29781;49.480;8.512;2023-07-28T08:29:14;1.70;;;1.60;;
44116;SDS011;29781;49.480;8.512;2023-07-28T08:31:40;2.00;;;1.90;;
44116;SDS011;29781;49.480;8.512;2023-07-28T08:34:06;2.55;;;1.73;;
44116;SDS011;29781;49.480;8.512;2023-07-28T08:36:32;1.90;;;1.60;;
44116;SDS011;29781;49.480;8.512;2023-07-28T08:38:58;1.65;;;1.52;;
44116;SDS011;29781;49.480;8.512;2023-07-28T08:41:24;1.83;;;1.50;;
44116;SDS011;29781;49.480;8.512;2023-07-28T08:43:50;3.10;;;1.77;;
44116;SDS011;29781;49.480;8.512;2023-07-28T08:46:16;2.20;;;1.80;;
44116;SDS011;29781;49.480;8.512;2023-07-28T08:48:43;1.77;;;1.50;;
44116;SDS011;29781;49.480;8.512;2023-07-28T08:51:09;1.83;;;1.38;;
44116;SDS011;29781;49.480;8.512;2023-07-28T08:53:36;1.48;;;1.38;;
44116;SDS011;29781;49.480;8.512;2023-07-28T08:56:03;3.55;;;1.60;;
44116;SDS011;29781;49.480;8.512;2023-07-28T08:58:29;1.50;;;1.40;;
44116;SDS011;29781;49.480;8.512;2023-07-28T09:00:55;1.80;;;1.65;;
44116;SDS011;29781;49.480;8.512;2023-07-28T09:03:20;1.70;;;1.60;;
44116;SDS011;29781;49.480;8.512;2023-07-28T09:05:47;1.95;;;1.75;;
44116;SDS011;29781;49.480;8.512;2023-07-28T09:08:13;3.38;;;1.70;;
44116;SDS011;29781;49.480;8.512;2023-07-28T09:10:43;1.90;;;1.80;;
44116;SDS011;29781;49.480;8.512;2023-07-28T09:13:16;2.78;;;1.70;;
44116;SDS011;29781;49.480;8.512;2023-07-28T09:15:43;1.70;;;1.60;;
44116;SDS011;29781;49.480;8.512;2023-07-28T09:18:09;3.15;;;1.77;;
44116;SDS011;29781;49.480;8.512;2023-07-28T09:20:37;1.50;;;1.40;;
44116;SDS011;29781;49.480;8.512;2023-07-28T09:23:06;1.65;;;1.40;;
44116;SDS011;29781;49.480;8.512;2023-07-28T09:25:33;1.45;;;1.35;;
44116;SDS011;29781;49.480;8.512;2023-07-28T09:27:59;2.58;;;1.60;;
44116;SDS011;29781;49.480;8.512;2023-07-28T09:30:25;1.80;;;1.70;;
44116;SDS011;29781;49.480;8.512;2023-07-28T09:32:52;3.25;;;1.83;;
44116;SDS011;29781;49.480;8.512;2023-07-28T09:35:19;2.03;;;1.85;;
44116;SDS011;29781;49.480;8.512;2023-07-28T09:37:45;1.95;;;1.45;;
44116;SDS011;29781;49.480;8.512;2023-07-28T09:40:13;2.47;;;1.40;;
44116;SDS011;29781;49.480;8.512;2023-07-28T09:42:42;2.25;;;1.60;;
44116;SDS011;29781;49.480;8.512;2023-07-28T09:45:09;1.55;;;1.45;;
44116;SDS011;29781;49.480;8.512;2023-07-28T09:47:36;8.10;;;1.67;;
44116;SDS011;29781;49.480;8.512;2023-07-28T09:50:03;4.25;;;1.40;;
44116;SDS011;29781;49.480;8.512;2023-07-28T09:52:31;4.32;;;1.50;;
44116;SDS011;29781;49.480;8.512;2023-07-28T09:55:01;1.45;;;1.33;;
44116;SDS011;29781;49.480;8.512;2023-07-28T09:57:34;1.30;;;1.20;;
44116;SDS011;29781;49.480;8.512;2023-07-28T10:00:14;2.75;;;1.70;;
44116;SDS011;29781;49.480;8.512;2023-07-28T10:02:40;2.28;;;1.70;;
44116;SDS011;29781;49.480;8.512;2023-07-28T10:05:07;1.77;;;1.67;;
44116;SDS011;29781;49.480;8.512;2023-07-28T10:07:37;3.58;;;1.50;;
44116;SDS011;29781;49.480;8.512;2023-07-28T10:10:04;1.98;;;1.77;;
44116;SDS011;29781;49.480;8.512;2023-07-28T10:12:43;1.70;;;1.60;;
44116;SDS011;29781;49.480;8.512;2023-07-28T10:15:15;1.73;;;1.63;;
44116;SDS011;29781;49.480;8.512;2023-07-28T10:17:50;2.13;;;1.70;;
44116;SDS011;29781;49.480;8.512;2023-07-28T10:23:07;1.70;;;1.60;;
44116;SDS011;29781;49.480;8.512;2023-07-28T10:25:37;1.65;;;1.50;;
44116;SDS011;29781;49.480;8.512;2023-07-28T10:28:04;1.40;;;1.30;;
44116;SDS011;29781;49.480;8.512;2023-07-28T10:30:35;2.58;;;1.58;;
44116;SDS011;29781;49.480;8.512;2023-07-28T10:33:02;2.92;;;1.58;;
44116;SDS011;29781;49.480;8.512;2023-07-28T10:35:28;1.95;;;1.83;;
44116;SDS011;29781;49.480;8.512;2023-07-28T10:37:59;2.13;;;1.77;;
44116;SDS011;29781;49.480;8.512;2023-07-28T10:41:06;2.03;;;1.85;;
44116;SDS011;29781;49.480;8.512;2023-07-28T10:43:36;1.90;;;1.80;;
44116;SDS011;29781;49.480;8.512;2023-07-28T10:46:03;4.22;;;2.50;;
44116;SDS011;29781;49.480;8.512;2023-07-28T10:48:37;2.33;;;2.13;;
44116;SDS011;29781;49.480;8.512;2023-07-28T10:51:06;2.55;;;2.35;;
44116;SDS011;29781;49.480;8.512;2023-07-28T10:53:32;3.60;;;2.50;;
44116;SDS011;29781;49.480;8.512;2023-07-28T10:55:58;2.40;;;2.20;;
44116;SDS011;29781;49.480;8.512;2023-07-28T10:58:25;2.65;;;2.00;;
44116;SDS011;29781;49.480;8.512;2023-07-28T11:00:50;2.95;;;2.53;;
44116;SDS011;29781;49.480;8.512;2023-07-28T11:03:17;2.55;;;2.35;;
44116;SDS011;29781;49.480;8.512;2023-07-28T11:05:42;2.95;;;2.75;;
44116;SDS011;29781;49.480;8.512;2023-07-28T11:08:08;2.72;;;2.53;;
44116;SDS011;29781;49.480;8.512;2023-07-28T11:10:35;3.38;;;2.88;;
44116;SDS011;29781;49.480;8.512;2023-07-28T11:13:01;4.80;;;2.70;;
44116;SDS011;29781;49.480;8.512;2023-07-28T11:15:28;2.97;;;2.78;;
44116;SDS011;29781;49.480;8.512;2023-07-28T11:17:54;2.70;;;2.50;;
44116;SDS011;29781;49.480;8.512;2023-07-28T11:22:47;3.38;;;3.03;;
44116;SDS011;29781;49.480;8.512;2023-07-28T11:25:20;2.25;;;2.15;;
44116;SDS011;29781;49.480;8.512;2023-07-28T11:27:46;4.93;;;3.25;;
44116;SDS011;29781;49.480;8.512;2023-07-28T11:30:12;4.00;;;2.88;;
44116;SDS011;29781;49.480;8.512;2023-07-28T11:32:41;2.40;;;2.30;;
44116;SDS011;29781;49.480;8.512;2023-07-28T11:35:08;5.00;;;2.60;;
44116;SDS011;29781;49.480;8.512;2023-07-28T11:37:37;2.78;;;2.58;;
44116;SDS011;29781;49.480;8.512;2023-07-28T11:40:04;2.13;;;2.03;;
44116;SDS011;29781;49.480;8.512;2023-07-28T11:42:39;2.95;;;2.70;;
44116;SDS011;29781;49.480;8.512;2023-07-28T11:45:08;2.95;;;2.17;;
44116;SDS011;29781;49.480;8.512;2023-07-28T11:47:35;2.72;;;2.53;;
44116;SDS011;29781;49.480;8.512;2023-07-28T11:50:01;2.40;;;2.20;;
44116;SDS011;29781;49.480;8.512;2023-07-28T11:52:30;2.00;;;1.80;;
44116;SDS011;29781;49.480;8.512;2023-07-28T11:54:58;2.05;;;1.95;;
44116;SDS011;29781;49.480;8.512;2023-07-28T11:57:25;3.25;;;1.90;;
44116;SDS011;29781;49.480;8.512;2023-07-28T11:59:52;2.10;;;2.00;;
44116;SDS011;29781;49.480;8.512;2023-07-28T12:02:24;2.00;;;1.90;;
44116;SDS011;29781;49.480;8.512;2023-07-28T12:04:54;2.90;;;1.60;;
44116;SDS011;29781;49.480;8.512;2023-07-28T12:07:31;1.52;;;1.40;;
44116;SDS011;29781;49.480;8.512;2023-07-28T12:09:57;3.67;;;1.73;;
44116;SDS011;29781;49.480;8.512;2023-07-28T12:12:28;2.10;;;1.90;;
44116;SDS011;29781;49.480;8.512;2023-07-28T12:14:55;1.70;;;1.60;;
44116;SDS011;29781;49.480;8.512;2023-07-28T12:17:28;1.60;;;1.50;;
44116;SDS011;29781;49.480;8.512;2023-07-28T12:22:35;1.80;;;1.70;;
44116;SDS011;29781;49.480;8.512;2023-07-28T12:25:01;1.83;;;1.70;;
44116;SDS011;29781;49.480;8.512;2023-07-28T12:27:27;1.73;;;1.58;;
44116;SDS011;29781;49.480;8.512;2023-07-28T12:29:53;1.83;;;1.73;;
44116;SDS011;29781;49.480;8.512;2023-07-28T12:32:18;1.52;;;1.42;;
44116;SDS011;29781;49.480;8.512;2023-07-28T12:34:44;1.35;;;1.25;;
44116;SDS011;29781;49.480;8.512;2023-07-28T12:37:09;4.13;;;1.42;;
44116;SDS011;29781;49.480;8.512;2023-07-28T12:39:36;3.05;;;1.67;;
44116;SDS011;29781;49.480;8.512;2023-07-28T12:42:06;1.67;;;1.58;;
44116;SDS011;29781;49.480;8.512;2023-07-28T12:44:32;1.67;;;1.58;;
44116;SDS011;29781;49.480;8.512;2023-07-28T12:46:58;1.50;;;1.40;;
44116;SDS011;29781;49.480;8.512;2023-07-28T12:49:23;1.50;;;1.40;;
44116;SDS011;29781;49.480;8.512;2023-07-28T12:51:49;2.35;;;1.02;;
44116;SDS011;29781;49.480;8.512;2023-07-28T12:54:14;1.17;;;1.05;;
44116;SDS011;29781;49.480;8.512;2023-07-28T12:56:40;1.25;;;1.15;;
44116;SDS011;29781;49.480;8.512;2023-07-28T12:59:06;1.38;;;1.20;;
44116;SDS011;29781;49.480;8.512;2023-07-28T13:01:31;1.30;;;1.20;;
44116;SDS011;29781;49.480;8.512;2023-07-28T13:03:57;1.45;;;1.10;;
44116;SDS011;29781;49.480;8.512;2023-07-28T13:06:22;1.45;;;1.27;;
44116;SDS011;29781;49.480;8.512;2023-07-28T13:08:48;1.23;;;1.13;;
44116;SDS011;29781;49.480;8.512;2023-07-28T13:11:13;1.33;;;1.23;;
44116;SDS011;29781;49.480;8.512;2023-07-28T13:13:39;1.17;;;1.08;;
44116;SDS011;29781;49.480;8.512;2023-07-28T13:16:06;1.67;;;1.50;;
44116;SDS011;29781;49.480;8.512;2023-07-28T13:18:31;1.40;;;1.30;;
44116;SDS011;29781;49.480;8.512;2023-07-28T13:20:58;1.98;;;1.30;;
44116;SDS011;29781;49.480;8.512;2023-07-28T13:23:24;1.85;;;1.40;;
44116;SDS011;29781;49.480;8.512;2023-07-28T13:25:50;2.55;;;1.70;;
44116;SDS011;29781;49.480;8.512;2023-07-28T13:28:17;3.05;;;2.28;;
44116;SDS011;29781;49.480;8.512;2023-07-28T13:30:43;1.98;;;1.73;;
44116;SDS011;29781;49.480;8.512;2023-07-28T13:33:08;2.22;;;1.90;;
44116;SDS011;29781;49.480;8.512;2023-07-28T13:35:34;3.88;;;2.08;;
44116;SDS011;29781;49.480;8.512;2023-07-28T13:37:59;2.00;;;1.70;;
44116;SDS011;29781;49.480;8.512;2023-07-28T13:40:25;4.32;;;1.92;;
44116;SDS011;29781;49.480;8.512;2023-07-28T13:42:50;5.65;;;2.30;;
44116;SDS011;29781;49.480;8.512;2023-07-28T13:45:16;2.50;;;2.00;;
44116;SDS011;29781;49.480;8.512;2023-07-28T13:47:42;3.20;;;2.08;;
44116;SDS011;29781;49.480;8.512;2023-07-28T13:50:07;4.82;;;2.20;;
44116;SDS011;29781;49.480;8.512;2023-07-28T13:52:33;7.75;;;2.75;;
44116;SDS011;29781;49.480;8.512;2023-07-28T13:54:58;3.13;;;2.40;;
44116;SDS011;29781;49.480;8.512;2023-07-28T13:57:24;9.60;;;2.40;;
44116;SDS011;29781;49.480;8.512;2023-07-28T13:59:49;4.80;;;2.97;;
44116;SDS011;29781;49.480;8.512;2023-07-28T14:02:18;3.30;;;2.95;;
44116;SDS011;29781;49.480;8.512;2023-07-28T14:04:44;6.13;;;3.53;;
44116;SDS011;29781;49.480;8.512;2023-07-28T14:07:09;3.95;;;3.55;;
44116;SDS011;29781;49.480;8.512;2023-07-28T14:09:35;4.20;;;3.63;;
44116;SDS011;29781;49.480;8.512;2023-07-28T14:12:02;7.22;;;4.05;;
44116;SDS011;29781;49.480;8.512;2023-07-28T14:14:28;7.68;;;4.07;;
44116;SDS011;29781;49.480;8.512;2023-07-28T14:16:53;4.35;;;3.63;;
44116;SDS011;29781;49.480;8.512;2023-07-28T14:19:19;4.40;;;3.83;;
44116;SDS011;29781;49.480;8.512;2023-07-28T14:21:44;4.53;;;3.78;;
44116;SDS011;29781;49.480;8.512;2023-07-28T14:24:10;5.88;;;4.43;;
44116;SDS011;29781;49.480;8.512;2023-07-28T14:26:35;5.22;;;4.10;;
44116;SDS011;29781;49.480;8.512;2023-07-28T14:29:01;5.53;;;4.63;;
44116;SDS011;29781;49.480;8.512;2023-07-28T14:31:27;7.50;;;4.50;;
44116;SDS011;29781;49.480;8.512;2023-07-28T14:33:52;5.28;;;4.28;;
44116;SDS011;29781;49.480;8.512;2023-07-28T14:36:18;6.47;;;4.68;;
44116;SDS011;29781;49.480;8.512;2023-07-28T14:38:43;6.90;;;4.28;;
44116;SDS011;29781;49.480;8.512;2023-07-28T14:41:09;5.57;;;4.22;;
44116;SDS011;29781;49.480;8.512;2023-07-28T14:43:34;8.48;;;4.28;;
44116;SDS011;29781;49.480;8.512;2023-07-28T14:46:00;5.40;;;4.63;;
44116;SDS011;29781;49.480;8.512;2023-07-28T14:48:25;5.18;;;3.90;;
44116;SDS011;29781;49.480;8.512;2023-07-28T14:50:51;4.53;;;3.78;;
44116;SDS011;29781;49.480;8.512;2023-07-28T14:53:36;5.63;;;3.97;;
44116;SDS011;29781;49.480;8.512;2023-07-28T14:56:03;4.53;;;3.85;;
44116;SDS011;29781;49.480;8.512;2023-07-28T14:58:30;4.05;;;3.65;;
44116;SDS011;29781;49.480;8.512;2023-07-28T15:00:56;6.65;;;3.35;;